Time;durP1;ratioP1;P1;durP2;ratioP2;P2;SDS_P1;SDS_P2;PMS_P1;PMS_P2;Temp;Humidity;BMP_temperature;BMP_pressure;BME280_temperature;BME280_humidity;BME280_pressure;Samples;Min_cycle;Max_cycle;Signal;HPM_P1;HPM_P2
2024/01/07 00:00:27;;;;;;;0.00;0.00;;;;;;;;;;5032533;28;20524;-72
2024/01/07 00:02:53;;;;;;;0.00;0.00;;;;;;;;;;5033094;28;20108;-72
2024/01/07 00:05:19;;;;;;;0.10;0.10;;;;;;;;;;5031475;28;20026;-72
2024/01/07 00:07:45;;;;;;;0.00;0.00;;;;;;;;;;5032756;28;20498;-72
2024/01/07 00:10:11;;;;;;;0.00;0.00;;;;;;;;;;5032862;28;20026;-72
2024/01/07 00:12:37;;;;;;;0.20;0.00;;;;;;;;;;5031416;28;20024;-72
2024/01/07 00:15:04;;;;;;;0.10;0.10;;;;;;;;;;5031310;28;20025;-72
2024/01/07 00:17:30;;;;;;;0.00;0.00;;;;;;;;;;5032990;28;20025;-72
2024/01/07 00:19:56;;;;;;;0.00;0.00;;;;;;;;;;5032194;28;20057;-72
2024/01/07 00:22:22;;;;;;;0.05;0.05;;;;;;;;;;5032715;28;20029;-72
2024/01/07 00:24:48;;;;;;;0.00;0.00;;;;;;;;;;5032206;28;20037;-72
2024/01/07 00:27:14;;;;;;;0.00;0.00;;;;;;;;;;5031712;28;20056;-72
2024/01/07 00:29:40;;;;;;;0.00;0.00;;;;;;;;;;5032086;28;20034;-72
2024/01/07 00:32:06;;;;;;;0.05;0.00;;;;;;;;;;5030912;28;20037;-72
2024/01/07 00:34:33;;;;;;;0.00;0.00;;;;;;;;;;5032190;28;20037;-72
2024/01/07 00:36:59;;;;;;;0.13;0.00;;;;;;;;;;5032509;28;20045;-72
2024/01/07 00:39:25;;;;;;;0.00;0.00;;;;;;;;;;5031832;28;20206;-72
2024/01/07 00:41:51;;;;;;;0.05;0.05;;;;;;;;;;5030836;28;20022;-73
2024/01/07 00:44:17;;;;;;;0.05;0.05;;;;;;;;;;5032139;28;20029;-73
2024/01/07 00:46:43;;;;;;;0.08;0.08;;;;;;;;;;5032081;28;20055;-73
2024/01/07 00:49:09;;;;;;;0.08;0.08;;;;;;;;;;5031850;28;20022;-75
2024/01/07 00:51:35;;;;;;;0.10;0.05;;;;;;;;;;5031734;28;20033;-72
2024/01/07 00:54:01;;;;;;;0.05;0.05;;;;;;;;;;5031873;28;20032;-73
2024/01/07 00:56:28;;;;;;;0.00;0.00;;;;;;;;;;5032196;28;20087;-72
2024/01/07 00:58:54;;;;;;;0.00;0.00;;;;;;;;;;5031837;28;20029;-72
2024/01/07 01:01:20;;;;;;;0.10;0.10;;;;;;;;;;5031639;28;20390;-72
2024/01/07 01:03:46;;;;;;;0.10;0.10;;;;;;;;;;5031732;28;20033;-72
2024/01/07 01:06:12;;;;;;;0.00;0.00;;;;;;;;;;5031781;28;20022;-72
2024/01/07 01:08:38;;;;;;;0.00;0.00;;;;;;;;;;5032017;28;20026;-72
2024/01/07 01:11:04;;;;;;;0.00;0.00;;;;;;;;;;5031605;28;20021;-73
2024/01/07 01:13:30;;;;;;;0.00;0.00;;;;;;;;;;5031627;28;20681;-72
2024/01/07 01:15:56;;;;;;;0.00;0.00;;;;;;;;;;5029895;28;20022;-73
2024/01/07 01:18:22;;;;;;;0.00;0.00;;;;;;;;;;5031162;28;20025;-72
2024/01/07 01:20:48;;;;;;;0.00;0.00;;;;;;;;;;5031191;28;20033;-72
2024/01/07 01:23:14;;;;;;;0.00;0.00;;;;;;;;;;5030050;28;20116;-73
2024/01/07 01:25:40;;;;;;;0.00;0.00;;;;;;;;;;5030467;28;20029;-74
2024/01/07 01:28:06;;;;;;;0.10;0.05;;;;;;;;;;5029743;28;20109;-74
2024/01/07 01:30:32;;;;;;;0.00;0.00;;;;;;;;;;5031071;28;20022;-75
2024/01/07 01:32:58;;;;;;;0.00;0.00;;;;;;;;;;5031349;28;20364;-74
2024/01/07 01:35:24;;;;;;;0.22;0.10;;;;;;;;;;5031063;28;20454;-73
2024/01/07 01:37:50;;;;;;;0.00;0.00;;;;;;;;;;5031179;28;20501;-75
2024/01/07 01:40:17;;;;;;;0.00;0.00;;;;;;;;;;5031025;28;20104;-75
2024/01/07 01:42:44;;;;;;;0.00;0.00;;;;;;;;;;5029690;28;20029;-72
2024/01/07 01:45:10;;;;;;;0.20;0.10;;;;;;;;;;5031036;28;20021;-72
2024/01/07 01:47:40;;;;;;;0.00;0.00;;;;;;;;;;5030828;28;20025;-72
2024/01/07 01:50:06;;;;;;;0.05;0.05;;;;;;;;;;5030789;28;20492;-72
2024/01/07 01:52:32;;;;;;;0.00;0.00;;;;;;;;;;5031200;28;20108;-72
2024/01/07 01:54:59;;;;;;;0.00;0.00;;;;;;;;;;5030814;28;20079;-72
2024/01/07 01:57:29;;;;;;;0.10;0.10;;;;;;;;;;5031581;28;20029;-72
2024/01/07 01:59:56;;;;;;;0.00;0.00;;;;;;;;;;5031469;28;20506;-72
2024/01/07 02:02:21;;;;;;;0.00;0.00;;;;;;;;;;5031918;28;20510;-73
2024/01/07 02:04:47;;;;;;;0.00;0.00;;;;;;;;;;5031715;28;20033;-73
2024/01/07 02:07:14;;;;;;;0.10;0.10;;;;;;;;;;5032062;28;20026;-70
2024/01/07 02:09:40;;;;;;;0.00;0.00;;;;;;;;;;5031637;28;20105;-74
2024/01/07 02:12:11;;;;;;;0.20;0.03;;;;;;;;;;5031998;28;20017;-72
2024/01/07 02:14:37;;;;;;;0.00;0.00;;;;;;;;;;5031680;28;20049;-73
2024/01/07 02:17:03;;;;;;;0.08;0.08;;;;;;;;;;5031817;28;20060;-70
2024/01/07 02:19:29;;;;;;;0.08;0.08;;;;;;;;;;5031682;28;20018;-74
2024/01/07 02:21:55;;;;;;;0.00;0.00;;;;;;;;;;5030507;28;20035;-71
2024/01/07 02:24:21;;;;;;;0.10;0.00;;;;;;;;;;5031381;28;20406;-71
2024/01/07 02:26:47;;;;;;;0.10;0.10;;;;;;;;;;5032300;28;20029;-70
2024/01/07 02:29:13;;;;;;;0.00;0.00;;;;;;;;;;5033340;28;20021;-71
2024/01/07 02:31:39;;;;;;;0.10;0.10;;;;;;;;;;5039888;28;20026;-71
2024/01/07 02:34:05;;;;;;;0.10;0.00;;;;;;;;;;5041085;28;20056;-70
2024/01/07 02:36:31;;;;;;;0.00;0.00;;;;;;;;;;5039666;28;20524;-70
2024/01/07 02:38:57;;;;;;;0.00;0.00;;;;;;;;;;5030415;28;20033;-70
2024/01/07 02:41:25;;;;;;;0.00;0.00;;;;;;;;;;5031392;28;20076;-71
2024/01/07 02:43:51;;;;;;;0.10;0.00;;;;;;;;;;5031461;28;20024;-71
2024/01/07 02:46:17;;;;;;;0.00;0.00;;;;;;;;;;5031295;28;20037;-70
2024/01/07 02:48:43;;;;;;;0.00;0.00;;;;;;;;;;5032157;28;20018;-71
2024/01/07 02:51:09;;;;;;;0.00;0.00;;;;;;;;;;5035397;28;20497;-71
2024/01/07 02:53:35;;;;;;;0.00;0.00;;;;;;;;;;5035501;28;20025;-71
2024/01/07 02:56:01;;;;;;;0.05;0.00;;;;;;;;;;5035281;28;20021;-71
2024/01/07 02:58:27;;;;;;;0.00;0.00;;;;;;;;;;5035285;28;20390;-71
2024/01/07 03:00:53;;;;;;;0.00;0.00;;;;;;;;;;5033853;28;20075;-71
2024/01/07 03:03:19;;;;;;;0.00;0.00;;;;;;;;;;5035218;28;20018;-71
2024/01/07 03:05:45;;;;;;;0.20;0.03;;;;;;;;;;5035301;28;20021;-71
2024/01/07 03:08:11;;;;;;;0.00;0.00;;;;;;;;;;5035161;28;20394;-71
2024/01/07 03:10:37;;;;;;;0.13;0.13;;;;;;;;;;5034892;28;20105;-72
2024/01/07 03:13:04;;;;;;;0.00;0.00;;;;;;;;;;5034969;28;20175;-73
2024/01/07 03:15:30;;;;;;;0.00;0.00;;;;;;;;;;5035098;28;20028;-71
2024/01/07 03:17:57;;;;;;;0.00;0.00;;;;;;;;;;5034961;28;20032;-71
2024/01/07 03:20:23;;;;;;;0.03;0.03;;;;;;;;;;5034689;28;20032;-71
2024/01/07 03:22:49;;;;;;;0.00;0.00;;;;;;;;;;5034884;28;20030;-72
2024/01/07 03:25:15;;;;;;;0.00;0.00;;;;;;;;;;5034565;28;20064;-71
2024/01/07 03:27:42;;;;;;;0.00;0.00;;;;;;;;;;5034639;28;20167;-71
2024/01/07 03:30:09;;;;;;;0.17;0.10;;;;;;;;;;5034864;28;20112;-71
2024/01/07 03:32:35;;;;;;;0.00;0.00;;;;;;;;;;5034726;28;20021;-74
2024/01/07 03:35:02;;;;;;;0.00;0.00;;;;;;;;;;5034592;28;20109;-71
2024/01/07 03:37:28;;;;;;;0.00;0.00;;;;;;;;;;5033316;28;20030;-71
2024/01/07 03:39:54;;;;;;;0.00;0.00;;;;;;;;;;5034093;28;20577;-72
2024/01/07 03:42:20;;;;;;;0.00;0.00;;;;;;;;;;5034619;28;20039;-72
2024/01/07 03:44:46;;;;;;;0.00;0.00;;;;;;;;;;5034346;28;20081;-72
2024/01/07 03:47:12;;;;;;;0.10;0.10;;;;;;;;;;5034325;28;20026;-72
2024/01/07 03:49:38;;;;;;;0.08;0.05;;;;;;;;;;5034292;28;20561;-71
2024/01/07 03:52:07;;;;;;;0.00;0.00;;;;;;;;;;5034592;28;20022;-71
2024/01/07 03:54:33;;;;;;;0.10;0.10;;;;;;;;;;5034147;28;20025;-72
2024/01/07 03:56:59;;;;;;;0.10;0.10;;;;;;;;;;5034452;28;20083;-71
2024/01/07 03:59:25;;;;;;;0.00;0.00;;;;;;;;;;5034116;28;20491;-71
2024/01/07 04:01:51;;;;;;;0.00;0.00;;;;;;;;;;5032872;28;20030;-70
2024/01/07 04:04:17;;;;;;;0.00;0.00;;;;;;;;;;5034050;28;20055;-71
2024/01/07 04:06:43;;;;;;;0.00;0.00;;;;;;;;;;5034037;28;20471;-70
2024/01/07 04:09:09;;;;;;;0.00;0.00;;;;;;;;;;5033933;28;20018;-71
2024/01/07 04:11:44;;;;;;;0.05;0.00;;;;;;;;;;5034066;28;20014;-71
2024/01/07 04:14:10;;;;;;;0.10;0.10;;;;;;;;;;5034123;28;20096;-71
2024/01/07 04:16:36;;;;;;;0.00;0.00;;;;;;;;;;5032690;28;20057;-70
2024/01/07 04:19:02;;;;;;;0.00;0.00;;;;;;;;;;5034105;28;20511;-74
2024/01/07 04:21:28;;;;;;;0.10;0.00;;;;;;;;;;5033755;28;20029;-71
2024/01/07 04:23:54;;;;;;;0.10;0.00;;;;;;;;;;5033842;28;20109;-70
2024/01/07 04:26:20;;;;;;;0.00;0.00;;;;;;;;;;5033621;28;20084;-71
2024/01/07 04:28:46;;;;;;;0.10;0.10;;;;;;;;;;5033726;28;20093;-71
2024/01/07 04:31:12;;;;;;;0.00;0.00;;;;;;;;;;5033453;28;20373;-71
2024/01/07 04:33:38;;;;;;;0.10;0.10;;;;;;;;;;5033585;28;20033;-71
2024/01/07 04:36:05;;;;;;;0.00;0.00;;;;;;;;;;5033569;28;20470;-71
2024/01/07 04:38:31;;;;;;;0.05;0.00;;;;;;;;;;5033372;28;20030;-71
2024/01/07 04:40:57;;;;;;;0.03;0.03;;;;;;;;;;5033380;28;20037;-71
2024/01/07 04:43:23;;;;;;;0.10;0.10;;;;;;;;;;5032188;28;20018;-71
2024/01/07 04:45:48;;;;;;;0.00;0.00;;;;;;;;;;5033396;28;20067;-71
2024/01/07 04:48:14;;;;;;;0.10;0.00;;;;;;;;;;5033334;28;20025;-71
2024/01/07 04:50:44;;;;;;;0.00;0.00;;;;;;;;;;5033186;28;20251;-71
2024/01/07 04:53:10;;;;;;;0.03;0.03;;;;;;;;;;5033082;28;20029;-71
2024/01/07 04:55:36;;;;;;;0.15;0.10;;;;;;;;;;5033193;28;20048;-72
2024/01/07 04:58:04;;;;;;;0.00;0.00;;;;;;;;;;5033223;28;20401;-71
2024/01/07 05:00:30;;;;;;;0.00;0.00;;;;;;;;;;5032793;28;20430;-71
2024/01/07 05:02:56;;;;;;;0.03;0.00;;;;;;;;;;5031641;28;20446;-71
2024/01/07 05:05:22;;;;;;;0.10;0.08;;;;;;;;;;5032927;28;20026;-71
2024/01/07 05:07:48;;;;;;;0.00;0.00;;;;;;;;;;5032928;28;20644;-71
2024/01/07 05:10:14;;;;;;;0.00;0.00;;;;;;;;;;5032675;28;20025;-71
2024/01/07 05:12:40;;;;;;;0.00;0.00;;;;;;;;;;5032641;28;20024;-71
2024/01/07 05:15:06;;;;;;;0.03;0.03;;;;;;;;;;5031342;28;20614;-71
2024/01/07 05:17:32;;;;;;;0.00;0.00;;;;;;;;;;5032804;28;20029;-72
2024/01/07 05:19:58;;;;;;;0.00;0.00;;;;;;;;;;5032342;28;20032;-72
2024/01/07 05:22:24;;;;;;;0.03;0.03;;;;;;;;;;5032604;28;20482;-72
2024/01/07 05:24:50;;;;;;;0.10;0.10;;;;;;;;;;5032464;28;20147;-71
2024/01/07 05:27:16;;;;;;;0.00;0.00;;;;;;;;;;5032572;28;20105;-72
2024/01/07 05:29:49;;;;;;;0.00;0.00;;;;;;;;;;5032397;28;20475;-72
2024/01/07 05:32:15;;;;;;;0.05;0.03;;;;;;;;;;5031246;28;20028;-72
2024/01/07 05:34:41;;;;;;;0.00;0.00;;;;;;;;;;5032294;28;20030;-71
2024/01/07 05:37:07;;;;;;;0.10;0.00;;;;;;;;;;5032311;28;20100;-71
2024/01/07 05:39:33;;;;;;;0.10;0.10;;;;;;;;;;5032149;28;20021;-76
2024/01/07 05:41:59;;;;;;;0.00;0.00;;;;;;;;;;5032330;28;20025;-72
2024/01/07 05:44:25;;;;;;;0.00;0.00;;;;;;;;;;5032146;28;20025;-71
2024/01/07 05:46:51;;;;;;;0.00;0.00;;;;;;;;;;5032231;28;20171;-71
2024/01/07 05:49:17;;;;;;;0.00;0.00;;;;;;;;;;5030747;28;20037;-71
2024/01/07 05:51:43;;;;;;;0.00;0.00;;;;;;;;;;5030623;28;20025;-73
2024/01/07 05:54:09;;;;;;;0.05;0.05;;;;;;;;;;5031918;28;20550;-72
2024/01/07 05:56:44;;;;;;;0.00;0.00;;;;;;;;;;5032230;28;20036;-73
2024/01/07 05:59:10;;;;;;;0.00;0.00;;;;;;;;;;5030590;28;20068;-71
2024/01/07 06:01:36;;;;;;;0.00;0.00;;;;;;;;;;5031657;28;20025;-71
2024/01/07 06:04:02;;;;;;;0.00;0.00;;;;;;;;;;5031885;28;20087;-71
2024/01/07 06:06:28;;;;;;;0.03;0.00;;;;;;;;;;5031776;28;20441;-71
2024/01/07 06:08:54;;;;;;;0.00;0.00;;;;;;;;;;5031948;28;20022;-72
2024/01/07 06:11:20;;;;;;;0.00;0.00;;;;;;;;;;5031734;28;20100;-70
2024/01/07 06:13:46;;;;;;;0.05;0.00;;;;;;;;;;5033398;28;20030;-71
2024/01/07 06:16:12;;;;;;;0.20;0.00;;;;;;;;;;5034630;28;20033;-71
2024/01/07 06:18:39;;;;;;;0.00;0.00;;;;;;;;;;5034892;28;20105;-71
2024/01/07 06:21:05;;;;;;;0.20;0.00;;;;;;;;;;5033174;28;20029;-70
2024/01/07 06:23:33;;;;;;;0.00;0.00;;;;;;;;;;5031022;28;20028;-71
2024/01/07 06:25:59;;;;;;;0.17;0.15;;;;;;;;;;5031387;28;20176;-71
2024/01/07 06:28:25;;;;;;;0.10;0.10;;;;;;;;;;5031562;28;20041;-71
2024/01/07 06:30:51;;;;;;;0.00;0.00;;;;;;;;;;5031247;28;20497;-71
2024/01/07 06:33:17;;;;;;;0.10;0.10;;;;;;;;;;5031670;28;20032;-70
2024/01/07 06:35:43;;;;;;;0.00;0.00;;;;;;;;;;5031414;28;20017;-71
2024/01/07 06:38:09;;;;;;;0.00;0.00;;;;;;;;;;5030192;28;20112;-71
2024/01/07 06:40:35;;;;;;;0.00;0.00;;;;;;;;;;5031285;28;20446;-71
2024/01/07 06:43:01;;;;;;;0.00;0.00;;;;;;;;;;5031274;28;20075;-71
2024/01/07 06:45:27;;;;;;;1.27;0.10;;;;;;;;;;5029802;28;20076;-71
2024/01/07 06:47:54;;;;;;;0.00;0.00;;;;;;;;;;5031296;28;20463;-71
2024/01/07 06:50:20;;;;;;;0.00;0.00;;;;;;;;;;5031277;28;20057;-71
2024/01/07 06:52:46;;;;;;;0.00;0.00;;;;;;;;;;5031342;28;20022;-71
2024/01/07 06:55:12;;;;;;;0.00;0.00;;;;;;;;;;5031171;28;20467;-74
2024/01/07 06:57:38;;;;;;;0.00;0.00;;;;;;;;;;5031152;28;20036;-73
2024/01/07 07:00:04;;;;;;;0.00;0.00;;;;;;;;;;5030961;28;20073;-71
2024/01/07 07:02:30;;;;;;;0.00;0.00;;;;;;;;;;5031233;28;20049;-72
2024/01/07 07:04:56;;;;;;;0.00;0.00;;;;;;;;;;5031271;28;20064;-74
2024/01/07 07:07:22;;;;;;;0.10;0.10;;;;;;;;;;5029812;28;20040;-74
2024/01/07 07:09:49;;;;;;;0.10;0.10;;;;;;;;;;5030840;28;20485;-73
2024/01/07 07:12:15;;;;;;;0.05;0.05;;;;;;;;;;5031142;28;20044;-74
2024/01/07 07:14:41;;;;;;;0.10;0.00;;;;;;;;;;5030965;28;20024;-74
2024/01/07 07:17:07;;;;;;;0.00;0.00;;;;;;;;;;5031080;28;20040;-72
2024/01/07 07:19:33;;;;;;;0.08;0.08;;;;;;;;;;5031085;28;20383;-76
2024/01/07 07:21:59;;;;;;;0.00;0.00;;;;;;;;;;5030969;28;20083;-72
2024/01/07 07:24:25;;;;;;;0.00;0.00;;;;;;;;;;5030885;28;20033;-72
2024/01/07 07:26:51;;;;;;;0.00;0.00;;;;;;;;;;5031682;28;20041;-71
2024/01/07 07:29:20;;;;;;;0.00;0.00;;;;;;;;;;5030970;28;20506;-71
2024/01/07 07:31:46;;;;;;;0.00;0.00;;;;;;;;;;5031091;28;20052;-72
2024/01/07 07:34:12;;;;;;;0.10;0.10;;;;;;;;;;5031050;28;20503;-71
2024/01/07 07:36:40;;;;;;;0.00;0.00;;;;;;;;;;5034559;28;20031;-71
2024/01/07 07:39:06;;;;;;;0.00;0.00;;;;;;;;;;5034797;28;20036;-71
2024/01/07 07:41:32;;;;;;;0.10;0.10;;;;;;;;;;5034486;28;20029;-71
2024/01/07 07:43:58;;;;;;;0.00;0.00;;;;;;;;;;5034446;28;20029;-72
2024/01/07 07:46:24;;;;;;;0.03;0.00;;;;;;;;;;5034419;28;20029;-71
2024/01/07 07:48:50;;;;;;;0.03;0.00;;;;;;;;;;5034547;28;20075;-72
2024/01/07 07:51:16;;;;;;;0.10;0.00;;;;;;;;;;5034187;28;20510;-71
2024/01/07 07:53:42;;;;;;;0.00;0.00;;;;;;;;;;5034421;28;20021;-71
2024/01/07 07:56:09;;;;;;;0.00;0.00;;;;;;;;;;5034191;28;20110;-71
2024/01/07 07:58:35;;;;;;;0.00;0.00;;;;;;;;;;5034352;28;20022;-71
2024/01/07 08:01:01;;;;;;;0.00;0.00;;;;;;;;;;5033996;28;20045;-71
2024/01/07 08:03:27;;;;;;;0.00;0.00;;;;;;;;;;5033989;28;20479;-72
2024/01/07 08:05:53;;;;;;;0.00;0.00;;;;;;;;;;5034158;28;20104;-72
2024/01/07 08:11:18;;;;;;;0.00;0.00;;;;;;;;;;5034000;28;20037;-72
2024/01/07 08:13:44;;;;;;;0.00;0.00;;;;;;;;;;5034296;28;20045;-72
2024/01/07 08:16:10;;;;;;;0.00;0.00;;;;;;;;;;5034373;28;20524;-71
2024/01/07 08:18:36;;;;;;;0.00;0.00;;;;;;;;;;5032503;28;20024;-72
2024/01/07 08:21:05;;;;;;;0.00;0.00;;;;;;;;;;5032243;28;20045;-74
2024/01/07 08:23:31;;;;;;;0.00;0.00;;;;;;;;;;5033624;28;20017;-71
2024/01/07 08:25:57;;;;;;;0.00;0.00;;;;;;;;;;5033533;28;20066;-71
2024/01/07 08:28:23;;;;;;;0.00;0.00;;;;;;;;;;5033560;28;20398;-71
2024/01/07 08:30:51;;;;;;;0.00;0.00;;;;;;;;;;5033394;28;20093;-71
2024/01/07 08:33:17;;;;;;;0.00;0.00;;;;;;;;;;5032263;28;20032;-72
2024/01/07 08:35:44;;;;;;;0.00;0.00;;;;;;;;;;5033233;28;20021;-71
2024/01/07 08:38:10;;;;;;;0.10;0.00;;;;;;;;;;5033545;28;20053;-71
2024/01/07 08:40:36;;;;;;;0.08;0.00;;;;;;;;;;5033232;28;20025;-71
2024/01/07 08:43:02;;;;;;;0.00;0.00;;;;;;;;;;5033256;28;20490;-72
2024/01/07 08:45:28;;;;;;;0.17;0.10;;;;;;;;;;5033273;28;20112;-72
2024/01/07 08:47:55;;;;;;;0.05;0.05;;;;;;;;;;5032443;28;20033;-71
2024/01/07 08:50:21;;;;;;;0.00;0.00;;;;;;;;;;5033037;28;20033;-71
2024/01/07 08:52:47;;;;;;;0.00;0.00;;;;;;;;;;5033130;28;20030;-70
2024/01/07 08:55:13;;;;;;;0.00;0.00;;;;;;;;;;5033195;28;20390;-72
2024/01/07 08:57:39;;;;;;;0.00;0.00;;;;;;;;;;5033168;28;20022;-72
2024/01/07 09:00:09;;;;;;;0.22;0.00;;;;;;;;;;5032828;28;20379;-72
2024/01/07 09:02:35;;;;;;;0.00;0.00;;;;;;;;;;5033137;28;20083;-71
2024/01/07 09:05:01;;;;;;;0.10;0.00;;;;;;;;;;5031535;28;20025;-73
2024/01/07 09:07:27;;;;;;;0.00;0.00;;;;;;;;;;5032754;28;20060;-72
2024/01/07 09:09:59;;;;;;;0.00;0.00;;;;;;;;;;5032662;28;20017;-71
2024/01/07 09:12:25;;;;;;;0.00;0.00;;;;;;;;;;5032945;28;20030;-71
2024/01/07 09:14:51;;;;;;;0.00;0.00;;;;;;;;;;5032719;28;20097;-71
2024/01/07 09:17:17;;;;;;;0.00;0.00;;;;;;;;;;5032726;28;20451;-71
2024/01/07 09:19:43;;;;;;;0.00;0.00;;;;;;;;;;5032376;28;20108;-71
2024/01/07 09:22:09;;;;;;;0.00;0.00;;;;;;;;;;5032579;28;20069;-71
2024/01/07 09:24:35;;;;;;;0.00;0.00;;;;;;;;;;5032421;28;20072;-70
2024/01/07 09:27:01;;;;;;;0.00;0.00;;;;;;;;;;5031222;28;20029;-71
2024/01/07 09:29:27;;;;;;;0.10;0.10;;;;;;;;;;5032412;28;20186;-70
2024/01/07 09:31:53;;;;;;;0.00;0.00;;;;;;;;;;5032142;28;20418;-71
2024/01/07 09:34:19;;;;;;;0.00;0.00;;;;;;;;;;5030967;28;20076;-70
2024/01/07 09:36:45;;;;;;;0.00;0.00;;;;;;;;;;5032170;28;20093;-70
2024/01/07 09:39:11;;;;;;;0.00;0.00;;;;;;;;;;5032153;28;20021;-70
2024/01/07 09:41:37;;;;;;;0.10;0.00;;;;;;;;;;5031968;28;20036;-71
2024/01/07 09:44:04;;;;;;;0.00;0.00;;;;;;;;;;5032165;28;20453;-71
2024/01/07 09:46:30;;;;;;;0.00;0.00;;;;;;;;;;5030697;28;20397;-71
2024/01/07 09:48:56;;;;;;;0.00;0.00;;;;;;;;;;5030765;28;20460;-71
2024/01/07 09:51:23;;;;;;;0.00;0.00;;;;;;;;;;5031998;28;20339;-71
2024/01/07 09:53:52;;;;;;;0.00;0.00;;;;;;;;;;5032076;28;20080;-71
2024/01/07 09:56:25;;;;;;;0.00;0.00;;;;;;;;;;5031995;28;20093;-71
2024/01/07 09:58:51;;;;;;;0.00;0.00;;;;;;;;;;5032965;28;20017;-72
2024/01/07 10:01:18;;;;;;;0.00;0.00;;;;;;;;;;5032330;28;20025;-71
2024/01/07 10:03:44;;;;;;;0.10;0.10;;;;;;;;;;5032500;28;20483;-71
2024/01/07 10:06:13;;;;;;;0.00;0.00;;;;;;;;;;5031730;28;20021;-71
2024/01/07 10:08:39;;;;;;;0.00;0.00;;;;;;;;;;5031744;28;20026;-72
2024/01/07 10:11:05;;;;;;;0.00;0.00;;;;;;;;;;5031642;28;20029;-71
2024/01/07 10:13:32;;;;;;;0.00;0.00;;;;;;;;;;5031711;28;20026;-72
2024/01/07 10:15:58;;;;;;;0.00;0.00;;;;;;;;;;5031777;28;20028;-71
2024/01/07 10:18:25;;;;;;;0.00;0.00;;;;;;;;;;5031765;28;20025;-70
2024/01/07 10:20:54;;;;;;;0.00;0.00;;;;;;;;;;5031643;28;20025;-73
2024/01/07 10:23:20;;;;;;;0.00;0.00;;;;;;;;;;5031595;28;20048;-72
2024/01/07 10:25:47;;;;;;;0.00;0.00;;;;;;;;;;5031202;28;20471;-69
2024/01/07 10:28:14;;;;;;;0.00;0.00;;;;;;;;;;5031188;28;20086;-70
2024/01/07 10:30:40;;;;;;;0.00;0.00;;;;;;;;;;5031292;28;20022;-71
2024/01/07 10:33:08;;;;;;;0.00;0.00;;;;;;;;;;5031645;28;20022;-70
2024/01/07 10:35:34;;;;;;;0.00;0.00;;;;;;;;;;5031617;28;20017;-72
2024/01/07 10:38:01;;;;;;;0.00;0.00;;;;;;;;;;5031352;28;20490;-70
2024/01/07 10:40:32;;;;;;;0.40;0.03;;;;;;;;;;5031306;28;20037;-71
2024/01/07 10:42:58;;;;;;;;;;;;;;;;;;5031784;28;20104;-71
2024/01/07 10:45:24;;;;;;;0.00;0.00;;;;;;;;;;5031491;28;19987;-72
2024/01/07 10:47:51;;;;;;;0.00;0.00;;;;;;;;;;5031435;28;20021;-72
2024/01/07 10:50:17;;;;;;;0.00;0.00;;;;;;;;;;5031196;28;20120;-71
2024/01/07 10:52:43;;;;;;;0.00;0.00;;;;;;;;;;5030123;28;20018;-71
2024/01/07 10:55:11;;;;;;;0.00;0.00;;;;;;;;;;5031428;28;20025;-71
2024/01/07 10:57:40;;;;;;;0.00;0.00;;;;;;;;;;5031650;28;20026;-71
2024/01/07 11:00:07;;;;;;;0.00;0.00;;;;;;;;;;5030992;28;20487;-71
2024/01/07 11:02:38;;;;;;;0.00;0.00;;;;;;;;;;5031574;28;20384;-71
2024/01/07 11:05:09;;;;;;;0.00;0.00;;;;;;;;;;5031632;28;20513;-70
2024/01/07 11:07:40;;;;;;;0.00;0.00;;;;;;;;;;5031317;28;20033;-71
2024/01/07 11:10:23;;;;;;;0.00;0.00;;;;;;;;;;5032420;28;20109;-72
2024/01/07 11:12:55;;;;;;;0.00;0.00;;;;;;;;;;5035349;28;20106;-72
2024/01/07 11:15:41;;;;;;;0.00;0.00;;;;;;;;;;5035596;28;20058;-72
2024/01/07 11:18:07;;;;;;;0.00;0.00;;;;;;;;;;5027883;28;20043;-72
2024/01/07 11:20:34;;;;;;;0.00;0.00;;;;;;;;;;5034955;28;20022;-70
2024/01/07 11:23:18;;;;;;;0.00;0.00;;;;;;;;;;5035307;28;20101;-71
2024/01/07 11:25:44;;;;;;;0.13;0.00;;;;;;;;;;5034946;28;20103;-71
2024/01/07 11:28:13;;;;;;;0.00;0.00;;;;;;;;;;5034951;28;20026;-69
2024/01/07 11:30:41;;;;;;;0.00;0.00;;;;;;;;;;5034834;28;20029;-71
2024/01/07 11:33:06;;;;;;;0.00;0.00;;;;;;;;;;5035028;28;20058;-69
2024/01/07 11:35:51;;;;;;;0.00;0.00;;;;;;;;;;5034862;28;20376;-70
2024/01/07 11:38:17;;;;;;;0.05;0.00;;;;;;;;;;5034779;28;20061;-73
2024/01/07 11:40:43;;;;;;;0.00;0.00;;;;;;;;;;5034552;28;20491;-73
2024/01/07 11:43:11;;;;;;;0.00;0.00;;;;;;;;;;5034575;28;20083;-71
2024/01/07 11:45:37;;;;;;;0.00;0.00;;;;;;;;;;5034451;28;20108;-71
2024/01/07 11:48:03;;;;;;;0.00;0.00;;;;;;;;;;5034312;28;20065;-71
2024/01/07 11:50:29;;;;;;;0.00;0.00;;;;;;;;;;5034334;28;20021;-71
2024/01/07 11:52:55;;;;;;;0.00;0.00;;;;;;;;;;5034440;28;20517;-72
2024/01/07 11:55:22;;;;;;;0.00;0.00;;;;;;;;;;5034533;28;20033;-73
2024/01/07 11:57:48;;;;;;;0.00;0.00;;;;;;;;;;5034244;28;20445;-72
2024/01/07 12:00:14;;;;;;;0.00;0.00;;;;;;;;;;5032647;28;20537;-73
2024/01/07 12:02:40;;;;;;;0.10;0.10;;;;;;;;;;5032930;28;20406;-72
2024/01/07 12:05:06;;;;;;;0.00;0.00;;;;;;;;;;5034231;28;20026;-71
2024/01/07 12:07:32;;;;;;;0.00;0.00;;;;;;;;;;5034289;28;20029;-71
2024/01/07 12:09:58;;;;;;;0.00;0.00;;;;;;;;;;5034016;28;20071;-71
2024/01/07 12:12:30;;;;;;;0.00;0.00;;;;;;;;;;5034221;28;20017;-71
2024/01/07 12:14:58;;;;;;;0.00;0.00;;;;;;;;;;5033916;28;20093;-71
2024/01/07 12:17:24;;;;;;;0.00;0.00;;;;;;;;;;5034197;28;20054;-71
2024/01/07 12:19:51;;;;;;;0.40;0.00;;;;;;;;;;5033931;28;20029;-71
2024/01/07 12:22:18;;;;;;;0.00;0.00;;;;;;;;;;5032926;28;20454;-71
2024/01/07 12:24:44;;;;;;;0.00;0.00;;;;;;;;;;5033540;28;20037;-71
2024/01/07 12:27:10;;;;;;;0.00;0.00;;;;;;;;;;5032835;28;20632;-70
2024/01/07 12:29:36;;;;;;;0.10;0.10;;;;;;;;;;5032610;28;20022;-71
2024/01/07 12:32:02;;;;;;;0.00;0.00;;;;;;;;;;5032644;28;20095;-71
2024/01/07 12:34:28;;;;;;;0.00;0.00;;;;;;;;;;5032544;28;20039;-71
2024/01/07 12:36:55;;;;;;;0.00;0.00;;;;;;;;;;5032669;28;20124;-72
2024/01/07 12:39:21;;;;;;;0.00;0.00;;;;;;;;;;5032432;28;20052;-71
2024/01/07 12:41:47;;;;;;;0.00;0.00;;;;;;;;;;5032351;28;20068;-72
2024/01/07 12:44:13;;;;;;;0.00;0.00;;;;;;;;;;5032537;28;20068;-72
2024/01/07 12:46:39;;;;;;;0.00;0.00;;;;;;;;;;5032427;28;20024;-70
2024/01/07 12:49:05;;;;;;;0.00;0.00;;;;;;;;;;5032432;28;20045;-69
2024/01/07 12:51:31;;;;;;;0.00;0.00;;;;;;;;;;5032390;28;20052;-70
2024/01/07 12:53:59;;;;;;;0.00;0.00;;;;;;;;;;5031132;28;20524;-70
2024/01/07 12:56:25;;;;;;;0.00;0.00;;;;;;;;;;5032398;28;20102;-71
2024/01/07 12:58:51;;;;;;;0.00;0.00;;;;;;;;;;5032552;28;20069;-72
2024/01/07 13:01:17;;;;;;;0.00;0.00;;;;;;;;;;5032289;28;20032;-72
2024/01/07 13:03:43;;;;;;;0.00;0.00;;;;;;;;;;5032419;28;20507;-71
2024/01/07 13:06:09;;;;;;;0.00;0.00;;;;;;;;;;5032421;28;20036;-71
2024/01/07 13:08:35;;;;;;;0.10;0.00;;;;;;;;;;5030749;28;20022;-71
2024/01/07 13:11:02;;;;;;;0.00;0.00;;;;;;;;;;5031880;28;20022;-71
2024/01/07 13:13:27;;;;;;;0.00;0.00;;;;;;;;;;5030906;28;20025;-71
2024/01/07 13:15:54;;;;;;;0.00;0.00;;;;;;;;;;5032015;28;20025;-71
2024/01/07 13:18:20;;;;;;;0.20;0.10;;;;;;;;;;5032241;28;20084;-71
2024/01/07 13:20:46;;;;;;;0.17;0.17;;;;;;;;;;5031796;28;20482;-71
2024/01/07 13:23:12;;;;;;;0.08;0.00;;;;;;;;;;5032093;28;20123;-71
2024/01/07 13:25:38;;;;;;;0.10;0.10;;;;;;;;;;4993695;28;1108599;-71
2024/01/07 13:28:04;;;;;;;0.10;0.10;;;;;;;;;;5033338;28;20026;-71
2024/01/07 13:30:30;;;;;;;0.28;0.10;;;;;;;;;;5032648;28;20121;-71
2024/01/07 13:32:58;;;;;;;0.00;0.00;;;;;;;;;;5032258;28;20463;-71
2024/01/07 13:35:24;;;;;;;0.10;0.10;;;;;;;;;;5032931;28;20017;-70
2024/01/07 13:37:51;;;;;;;0.20;0.10;;;;;;;;;;5031617;28;20554;-70
2024/01/07 13:40:18;;;;;;;0.00;0.00;;;;;;;;;;5032852;28;20047;-71
2024/01/07 13:42:44;;;;;;;0.25;0.20;;;;;;;;;;5037180;28;20064;-71
2024/01/07 13:45:10;;;;;;;0.20;0.20;;;;;;;;;;5038315;28;20688;-71
2024/01/07 13:47:37;;;;;;;0.10;0.10;;;;;;;;;;5036191;28;20113;-71
2024/01/07 13:50:03;;;;;;;0.10;0.10;;;;;;;;;;5034762;28;20486;-71
2024/01/07 13:52:29;;;;;;;0.52;0.20;;;;;;;;;;5032615;28;20394;-72
2024/01/07 13:54:57;;;;;;;0.35;0.10;;;;;;;;;;5032548;28;20028;-71
2024/01/07 13:57:23;;;;;;;0.25;0.20;;;;;;;;;;5032670;28;20486;-71
2024/01/07 13:59:49;;;;;;;0.10;0.10;;;;;;;;;;5031506;28;20335;-71
2024/01/07 14:02:19;;;;;;;0.20;0.20;;;;;;;;;;5031527;28;20483;-71
2024/01/07 14:04:45;;;;;;;0.10;0.10;;;;;;;;;;5031777;28;20526;-71
2024/01/07 14:07:11;;;;;;;0.10;0.10;;;;;;;;;;5031157;28;20060;-71
2024/01/07 14:09:49;;;;;;;0.20;0.20;;;;;;;;;;5032181;28;20091;-71
2024/01/07 14:12:18;;;;;;;0.20;0.20;;;;;;;;;;5032318;28;20025;-70
2024/01/07 14:14:44;;;;;;;0.32;0.20;;;;;;;;;;5030730;28;20021;-71
2024/01/07 14:17:10;;;;;;;0.10;0.10;;;;;;;;;;5030650;28;20063;-71
2024/01/07 14:19:36;;;;;;;0.25;0.10;;;;;;;;;;5031723;28;20021;-71
2024/01/07 14:22:02;;;;;;;0.25;0.20;;;;;;;;;;5031916;28;20451;-71
2024/01/07 14:24:28;;;;;;;0.20;0.20;;;;;;;;;;5031715;28;20033;-71
2024/01/07 14:26:54;;;;;;;0.20;0.20;;;;;;;;;;5031775;28;20025;-71
2024/01/07 14:29:21;;;;;;;0.30;0.30;;;;;;;;;;5031813;28;20021;-71
2024/01/07 14:31:48;;;;;;;0.20;0.20;;;;;;;;;;5031755;28;20025;-71
2024/01/07 14:34:14;;;;;;;0.50;0.40;;;;;;;;;;5031620;28;20105;-71
2024/01/07 14:36:43;;;;;;;0.57;0.47;;;;;;;;;;5030740;28;20022;-71
2024/01/07 14:39:10;;;;;;;0.20;0.20;;;;;;;;;;5031989;28;20028;-72
2024/01/07 14:41:36;;;;;;;0.20;0.20;;;;;;;;;;5030447;28;20052;-71